Walkerton, Virginia
Current Conditions -  °F | °C
As of 3:35 PM on Monday 22 Dec 2014 (Local Time) from KXSA Reporting Station
Drizzle Drizzle  
Wind Chill: 32°   Ceiling: 400
Heat Index: 38°   Visibility: 2mi
Dew Point: 35°   Wind: 8mph
Humidity: 89%   Direction: 360°N
Pressure: 30.1"   Gusts: NA
Location:  37.73°N, 77.02°W
Report Text: KXSA 222035Z AUTO 36007KT 2SM -DZ OVC004 03/02 A3010 RMK AO2 T00330016
Loading
Personal Weather Stations






























Interactive Weather Map New forecast layout! Learn more

10-Day Weather Forecast

Advertisements
Track Severe Weather on mobile